Airfield :
LOGIN :

Register | Disclaimer

   EN    FR    IT 

 










Legend :    VFR   Marginal VFR   IFR   Intensive IFR   Very Intensive IFR
Visi :
Ceiling :
>= 8 km
>= 3000ft
5 to 8 km
1000 to 3000 ft
1500m to 5 km
500 to 1000 ft
800 to 1500m
200 to 500 ft
< 800m
< 200 ft
Symbols :   Thunderstorms  Fog  Heavy snow  Heavy precipitations  Wind > 20 kt
SIGMETs :     Misc.  Thunderstorms  Icing  Turbulence  Mountain Waves  Volcanic Ashes







- Airport Elevation : 499 ft
- IATA code : TLS
- Download approach charts


LFBO - Toulouse / Blagnac

CURRENT METAR :
  • 190200Z AUTO 34003KT 310V030 CAVOK 06/02 Q1008 NOSIG

EXPIRED METARs :
  • 190130Z AUTO 03003KT 360V060 CAVOK 07/03 Q1008 NOSIG
  • 190100Z AUTO 05005KT 010V080 CAVOK 08/03 Q1008 NOSIG
  • 190030Z AUTO 08007KT 050V120 CAVOK 10/04 Q1008 NOSIG
  • 190000Z AUTO 11009KT 080V140 CAVOK 10/04 Q1008 NOSIG

TAF TAF LFBO
Valid from the 19 at 00:00 until the 20 at 06:00 UTC


182300Z 1900/2006 12010KT CAVOK
BECMG 1901/1903 VRB03KT
BECMG 1907/1909 BKN025
BECMG 1914/1916 16006KT
TEMPO 1918/2003 CAVOK
ATIS : +33 5 62 74 66 36
No reported NOTAMs for that airfield.
1 SIGMET reported for the Bordeaux FIR (LFBB) :
 
Severe turbulence
LFBB SIGMET 7 VALID 190000/190400 LFPW
LFBB BORDEAUX FIR/UIR SEV TURB FCST WI N4400 W00145 - N4530 W00145 - N4430 E00200 - N4300 E00145 - N4400 W00145 FL180/350 MOV S 10KT NC=



MET'MAP, your aeronautical weather chart ! - Copyright ORBIFLY December 2007 - Disclaimer

ORBIFLY MET'MAP TEAM :

Programming & Development : Alexandra Zaïnal
Concept & Development : Baudouin d'Aumeries
Co-Development & Prog : Marc-Olivier Méhu
Technical & hardware support : Manuel Goepfert

Contact : metmap@orbifly.com




SOURCES & CREDITS :

   NOAA